WXM80 ListenWXM80 Stop

You find our weather info also at:

UK Metoffice

WeatherCloud

Weather Underground

Northeastern Weather Network

AWEKAS

Citizen Weather Observer Program (CWOP)

HAMweather, WeatherForYou, PWS Weather


Weather Underground History page Text

Daily Summary for August 14, 2016 Units:  English    Metric   Both
« Previous Day
Next Day »
Daily Weekly Monthly Yearly Custom
  High: Low: Average:
Temperature: 100.4 °F 76.2 °F 86.7 °F
Dew Point: 79.6 °F 73.0 °F 76.4 °F
Humidity: 95 % 48 % 74 %
Wind Speed: 10.3 mph 0.0 mph 1.8 mph
Wind Gust: 17.3 mph - -
Wind:- - WSW
Pressure: 30.00 in 29.83 in -
Precipitation: 0.27 in    
Historical Graphs
 
 
Tabular Data for August 14, 2016
Time Temperature Dew Point Pressure Wind Wind Speed Wind Gust Humidity Rainfall Rate (Hourly)
00:01 82.4 °F 77.8 °F 29.86 in WSW 0.1 mph 3.5 mph 86 % 0.00 in
00:06 82.5 °F 77.9 °F 29.87 in SW 1.0 mph 9.0 mph 86 % 0.00 in
00:11 82.7 °F 78.1 °F 29.87 in WSW 1.0 mph 7.0 mph 86 % 0.00 in
00:16 82.8 °F 78.2 °F 29.86 in West 2.5 mph 4.0 mph 86 % 0.00 in
00:21 82.8 °F 78.2 °F 29.87 in SW 3.0 mph 7.0 mph 86 % 0.00 in
00:26 82.9 °F 78.3 °F 29.88 in WSW 1.0 mph 7.0 mph 86 % 0.00 in
00:31 82.9 °F 78.3 °F 29.89 in WSW 3.0 mph 8.0 mph 86 % 0.00 in
00:36 82.9 °F 78.3 °F 29.89 in WNW 2.0 mph 12.0 mph 86 % 0.00 in
00:41 82.9 °F 78.3 °F 29.89 in NW 1.0 mph 5.0 mph 86 % 0.00 in
00:46 82.9 °F 77.9 °F 29.89 in Calm   4.0 mph 85 % 0.00 in
00:51 82.9 °F 77.2 °F 29.90 in NW 0.5 mph 4.6 mph 83 % 0.00 in
00:56 82.9 °F 77.5 °F 29.89 in Calm   4.0 mph 84 % 0.00 in
01:01 82.8 °F 77.1 °F 29.89 in Calm   2.3 mph 83 % 0.00 in
01:06 82.6 °F 76.5 °F 29.89 in Calm     82 % 0.00 in
01:11 82.5 °F 76.4 °F 29.89 in Calm     82 % 0.00 in
01:16 82.5 °F 76.4 °F 29.89 in Calm     82 % 0.00 in
01:21 82.3 °F 76.3 °F 29.88 in Calm     82 % 0.00 in
01:26 82.2 °F 76.2 °F 29.88 in Calm     82 % 0.00 in
01:31 82.0 °F 76.3 °F 29.88 in Calm     83 % 0.00 in
01:36 81.9 °F 76.2 °F 29.88 in Calm     83 % 0.00 in
01:41 81.7 °F 76.0 °F 29.88 in WNW 0.3 mph 1.0 mph 83 % 0.00 in
01:46 81.5 °F 75.8 °F 29.88 in Calm     83 % 0.00 in
01:52 81.3 °F 75.6 °F 29.87 in Calm   1.2 mph 83 % 0.00 in
01:57 81.1 °F 75.4 °F 29.86 in Calm     83 % 0.00 in
02:02 80.9 °F 75.6 °F 29.86 in Calm     84 % 0.00 in
02:07 80.8 °F 75.5 °F 29.86 in Calm     84 % 0.00 in
02:12 80.5 °F 75.2 °F 29.86 in Calm     84 % 0.00 in
02:17 80.4 °F 75.1 °F 29.86 in Calm     84 % 0.00 in
02:22 80.3 °F 75.4 °F 29.86 in Calm     85 % 0.00 in
02:27 80.1 °F 75.2 °F 29.87 in WNW 0.2 mph 1.2 mph 85 % 0.00 in
02:32 80.0 °F 75.1 °F 29.87 in Calm     85 % 0.00 in
02:37 79.9 °F 75.3 °F 29.89 in WNW 0.7 mph 2.0 mph 86 % 0.00 in
02:43 79.8 °F 75.2 °F 29.90 in West 2.9 mph 8.1 mph 86 % 0.00 in
02:48 79.7 °F 75.1 °F 29.89 in ENE 2.7 mph 5.8 mph 86 % 0.00 in
02:53 79.7 °F 75.1 °F 29.88 in Calm     86 % 0.00 in
02:58 79.7 °F 75.1 °F 29.88 in NNW 0.3 mph 1.2 mph 86 % 0.00 in
03:03 79.6 °F 74.7 °F 29.87 in Calm   1.2 mph 85 % 0.00 in
03:08 79.6 °F 74.7 °F 29.86 in Calm     85 % 0.00 in
03:13 79.6 °F 74.7 °F 29.85 in NNW 0.5 mph 1.2 mph 85 % 0.00 in
03:18 79.5 °F 74.6 °F 29.85 in Calm   1.2 mph 85 % 0.00 in
03:23 79.4 °F 74.5 °F 29.84 in NNW 0.7 mph 2.3 mph 85 % 0.00 in
03:28 79.3 °F 74.0 °F 29.84 in NNW 0.4 mph 1.2 mph 84 % 0.00 in
03:33 79.3 °F 74.0 °F 29.84 in Calm   1.2 mph 84 % 0.00 in
03:39 79.2 °F 73.9 °F 29.83 in NNW 0.3 mph 1.2 mph 84 % 0.00 in
03:44 79.2 °F 73.9 °F 29.83 in NNW 0.1 mph 1.2 mph 84 % 0.00 in
03:49 79.2 °F 73.9 °F 29.83 in SW 1.9 mph 3.5 mph 84 % 0.00 in
03:54 79.2 °F 73.9 °F 29.83 in SSW 0.9 mph 2.3 mph 84 % 0.00 in
03:59 79.2 °F 73.6 °F 29.83 in Calm     83 % 0.00 in
04:04 79.2 °F 73.2 °F 29.83 in Calm   3.5 mph 82 % 0.00 in
04:09 79.1 °F 73.5 °F 29.83 in SSW 0.2 mph 1.2 mph 83 % 0.00 in
04:14 79.1 °F 73.5 °F 29.83 in SSW 0.3 mph 3.0 mph 83 % 0.00 in
04:19 79.1 °F 73.5 °F 29.84 in SSW 0.1 mph 1.2 mph 83 % 0.00 in
04:24 79.1 °F 73.1 °F 29.83 in Calm     82 % 0.00 in
04:30 79.2 °F 73.2 °F 29.84 in WSW 2.4 mph 4.0 mph 82 % 0.00 in
04:35 79.2 °F 73.2 °F 29.84 in Calm   2.3 mph 82 % 0.00 in
04:40 79.2 °F 73.2 °F 29.84 in Calm     82 % 0.00 in
04:45 79.2 °F 73.2 °F 29.84 in Calm     82 % 0.00 in
04:50 79.2 °F 73.2 °F 29.84 in Calm     82 % 0.00 in
04:55 79.1 °F 73.1 °F 29.84 in Calm     82 % 0.00 in
05:00 79.1 °F 73.5 °F 29.84 in Calm     83 % 0.00 in
05:05 79.0 °F 73.0 °F 29.84 in Calm     82 % 0.00 in
05:15 78.9 °F 73.3 °F 29.84 in Calm     83 % 0.00 in
05:20 78.8 °F 73.2 °F 29.85 in Calm     83 % 0.00 in
05:25 78.7 °F 73.5 °F 29.85 in Calm     84 % 0.00 in
05:31 78.6 °F 73.4 °F 29.85 in Calm     84 % 0.00 in
05:36 78.5 °F 73.6 °F 29.85 in Calm   2.0 mph 85 % 0.00 in
05:41 78.4 °F 73.5 °F 29.86 in Calm     85 % 0.00 in
05:46 78.3 °F 73.8 °F 29.86 in Calm   1.0 mph 86 % 0.00 in
05:51 78.2 °F 73.7 °F 29.86 in Calm     86 % 0.00 in
05:56 78.2 °F 73.7 °F 29.86 in Calm     86 % 0.00 in
06:01 78.1 °F 73.6 °F 29.86 in Calm     86 % 0.00 in
06:06 78.0 °F 73.5 °F 29.86 in Calm     86 % 0.00 in
06:11 77.9 °F 73.7 °F 29.87 in Calm     87 % 0.00 in
06:16 77.8 °F 73.6 °F 29.87 in Calm   1.2 mph 87 % 0.00 in
06:21 77.8 °F 73.6 °F 29.87 in Calm     87 % 0.00 in
06:26 77.7 °F 73.9 °F 29.87 in Calm     88 % 0.00 in
06:31 77.6 °F 73.4 °F 29.87 in Calm     87 % 0.00 in
06:36 77.6 °F 73.8 °F 29.87 in Calm     88 % 0.00 in
06:41 77.5 °F 73.7 °F 29.87 in Calm     88 % 0.00 in
06:47 77.6 °F 74.1 °F 29.87 in Calm     89 % 0.00 in
06:52 77.6 °F 74.1 °F 29.88 in Calm     89 % 0.00 in
06:57 77.6 °F 74.4 °F 29.88 in Calm     90 % 0.00 in
07:02 77.7 °F 74.5 °F 29.88 in Calm     90 % 0.00 in
07:07 77.8 °F 74.6 °F 29.88 in Calm     90 % 0.00 in
07:12 77.8 °F 74.6 °F 29.88 in Calm     90 % 0.00 in
07:17 78.0 °F 75.2 °F 29.88 in Calm     91 % 0.00 in
07:22 78.3 °F 75.8 °F 29.88 in Calm     92 % 0.00 in
07:27 78.7 °F 76.2 °F 29.88 in Calm     92 % 0.00 in
07:32 78.9 °F 76.4 °F 29.88 in Calm     92 % 0.00 in
07:38 79.2 °F 76.7 °F 29.88 in NW 0.1 mph 1.0 mph 92 % 0.00 in
07:43 79.4 °F 76.9 °F 29.88 in Calm     92 % 0.00 in
07:48 79.6 °F 77.1 °F 29.88 in Calm     92 % 0.00 in
07:53 79.8 °F 77.3 °F 29.89 in Calm   1.2 mph 92 % 0.00 in
07:58 80.2 °F 77.3 °F 29.89 in NW 0.5 mph 2.3 mph 91 % 0.00 in
08:03 80.5 °F 77.6 °F 29.89 in NW 0.6 mph 2.3 mph 91 % 0.00 in
08:08 80.9 °F 78.0 °F 29.89 in NW 0.5 mph 1.0 mph 91 % 0.00 in
08:13 81.2 °F 78.3 °F 29.89 in West 2.6 mph 4.0 mph 91 % 0.00 in
08:18 81.4 °F 78.5 °F 29.89 in West 1.7 mph 4.6 mph 91 % 0.00 in
08:23 81.7 °F 78.5 °F 29.89 in West 1.1 mph 3.5 mph 90 % 0.00 in
08:29 82.0 °F 78.4 °F 29.89 in SW 0.2 mph 3.5 mph 89 % 0.00 in
08:34 82.3 °F 78.7 °F 29.89 in West 0.9 mph 3.5 mph 89 % 0.00 in
08:39 82.6 °F 78.7 °F 29.89 in NW 1.8 mph 3.5 mph 88 % 0.00 in
08:44 82.9 °F 79.0 °F 29.90 in NW 0.8 mph 2.3 mph 88 % 0.00 in
08:49 83.2 °F 78.9 °F 29.90 in WSW 1.9 mph 3.5 mph 87 % 0.00 in
08:54 83.4 °F 78.8 °F 29.90 in West 2.8 mph 5.0 mph 86 % 0.00 in
08:59 83.7 °F 79.1 °F 29.90 in West 0.5 mph 3.5 mph 86 % 0.00 in
09:04 83.9 °F 78.9 °F 29.90 in South 1.6 mph 3.5 mph 85 % 0.00 in
09:09 84.1 °F 78.4 °F 29.90 in WSW 4.4 mph 9.2 mph 83 % 0.00 in
09:14 84.4 °F 77.9 °F 29.90 in SW 2.2 mph 8.1 mph 81 % 0.00 in
09:19 84.7 °F 77.8 °F 29.90 in West 4.4 mph 6.9 mph 80 % 0.00 in
09:24 85.0 °F 77.4 °F 29.90 in West 5.0 mph 6.9 mph 78 % 0.00 in
09:30 85.3 °F 77.3 °F 29.90 in SSW 3.9 mph 8.0 mph 77 % 0.00 in
09:35 85.6 °F 76.8 °F 29.90 in SW 3.3 mph 8.1 mph 75 % 0.00 in
09:40 86.1 °F 76.8 °F 29.90 in West 5.2 mph 9.2 mph 74 % 0.00 in
09:45 86.5 °F 77.6 °F 29.90 in SW 2.7 mph 6.0 mph 75 % 0.00 in
09:50 87.0 °F 77.3 °F 29.91 in West 3.2 mph 5.8 mph 73 % 0.00 in
09:55 87.7 °F 77.5 °F 29.91 in SW 1.5 mph 2.3 mph 72 % 0.00 in
10:00 88.5 °F 77.5 °F 29.91 in SW 5.1 mph 9.2 mph 70 % 0.00 in
10:05 89.2 °F 77.7 °F 29.91 in West 3.5 mph 6.9 mph 69 % 0.00 in
10:10 89.7 °F 77.3 °F 29.91 in WNW 3.9 mph 9.2 mph 67 % 0.00 in
10:15 90.1 °F 77.2 °F 29.90 in WNW 5.7 mph 8.1 mph 66 % 0.00 in
10:21 90.3 °F 76.9 °F 29.91 in West 5.0 mph 12.0 mph 65 % 0.00 in
10:26 90.7 °F 77.8 °F 29.91 in West 3.0 mph 8.0 mph 66 % 0.00 in
10:31 91.1 °F 77.2 °F 29.91 in West 6.0 mph 9.0 mph 64 % 0.00 in
10:36 91.4 °F 78.0 °F 29.91 in West 2.0 mph 7.0 mph 65 % 0.00 in
10:41 91.9 °F 78.0 °F 29.91 in West 2.0 mph 7.0 mph 64 % 0.00 in
10:45 92.5 °F 78.1 °F 29.91 in SW 5.8 mph 9.0 mph 63 % 0.00 in
10:51 92.8 °F 78.3 °F 29.91 in WSW 3.0 mph 7.0 mph 63 % 0.00 in
10:56 93.1 °F 78.1 °F 29.91 in West 3.0 mph 9.0 mph 62 % 0.00 in
11:01 93.4 °F 77.9 °F 29.91 in WSW 2.1 mph 5.8 mph 61 % 0.00 in
11:06 93.8 °F 78.3 °F 29.91 in SW 4.1 mph 5.8 mph 61 % 0.00 in
11:11 94.1 °F 78.6 °F 29.91 in WNW 3.2 mph 8.1 mph 61 % 0.00 in
11:16 94.4 °F 77.3 °F 29.91 in SW 6.2 mph 11.5 mph 58 % 0.00 in
11:21 94.6 °F 77.5 °F 29.91 in West 3.1 mph 6.0 mph 58 % 0.00 in
11:26 94.9 °F 77.3 °F 29.91 in SW 6.6 mph 12.0 mph 57 % 0.00 in
11:31 95.0 °F 77.4 °F 29.91 in WSW 6.2 mph 8.1 mph 57 % 0.00 in
11:36 95.3 °F 77.7 °F 29.91 in WSW 3.3 mph 8.1 mph 57 % 0.00 in
11:41 95.6 °F 77.9 °F 29.90 in WNW 2.7 mph 4.6 mph 57 % 0.00 in
11:47 95.9 °F 78.7 °F 29.91 in SW 5.3 mph 8.1 mph 58 % 0.00 in
11:52 96.3 °F 79.1 °F 29.91 in SW 3.6 mph 5.8 mph 58 % 0.00 in
11:57 96.6 °F 78.3 °F 29.91 in SW 6.5 mph 11.5 mph 56 % 0.00 in
12:02 96.7 °F 77.9 °F 29.91 in WNW 4.8 mph 9.2 mph 55 % 0.00 in
12:07 96.7 °F 76.8 °F 29.91 in WNW 4.2 mph 9.2 mph 53 % 0.00 in
12:12 96.8 °F 77.4 °F 29.91 in SW 2.5 mph 6.0 mph 54 % 0.00 in
12:17 96.9 °F 77.5 °F 29.91 in SW 7.3 mph 9.2 mph 54 % 0.00 in
12:22 96.9 °F 76.9 °F 29.90 in SW 5.1 mph 8.1 mph 53 % 0.00 in
12:27 96.9 °F 77.5 °F 29.90 in WSW 5.0 mph 12.0 mph 54 % 0.00 in
12:32 96.7 °F 76.8 °F 29.90 in WSW 6.1 mph 12.7 mph 53 % 0.00 in
12:38 96.7 °F 77.3 °F 29.90 in WSW 6.2 mph 9.2 mph 54 % 0.00 in
12:41 96.9 °F 77.5 °F 29.90 in WSW 4.5 mph 6.0 mph 54 % 0.00 in
12:51 97.1 °F 77.7 °F 29.90 in SW 4.6 mph 8.1 mph 54 % 0.00 in
12:56 97.2 °F 78.3 °F 29.90 in West 4.3 mph 9.2 mph 55 % 0.00 in
13:02 97.3 °F 76.7 °F 29.90 in WNW 4.5 mph 10.4 mph 52 % 0.00 in
13:07 97.6 °F 78.7 °F 29.90 in SW 1.5 mph 3.5 mph 55 % 0.00 in
13:12 97.9 °F 79.0 °F 29.89 in WSW 5.7 mph 10.0 mph 55 % 0.00 in
13:17 98.2 °F 78.7 °F 29.90 in West 1.6 mph 3.5 mph 54 % 0.00 in
13:22 98.6 °F 78.5 °F 29.90 in West 2.3 mph 8.1 mph 53 % 0.00 in
13:27 98.8 °F 78.1 °F 29.89 in SW 4.5 mph 8.1 mph 52 % 0.00 in
13:32 99.1 °F 77.8 °F 29.89 in West 3.6 mph 4.0 mph 51 % 0.00 in
13:37 99.4 °F 77.5 °F 29.90 in WNW 3.3 mph 9.2 mph 50 % 0.00 in
13:42 99.6 °F 77.7 °F 29.90 in SW 4.4 mph 8.1 mph 50 % 0.00 in
13:47 99.6 °F 77.0 °F 29.90 in NNE 2.0 mph 12.7 mph 49 % 0.00 in
13:53 99.5 °F 78.2 °F 29.90 in WSW 1.6 mph 4.0 mph 51 % 0.00 in
13:58 99.6 °F 77.7 °F 29.89 in West 1.0 mph 6.9 mph 50 % 0.00 in
14:03 99.8 °F 77.2 °F 29.90 in WSW 4.0 mph 9.0 mph 49 % 0.00 in
14:08 99.9 °F 76.7 °F 29.89 in WNW 3.2 mph 5.0 mph 48 % 0.00 in
14:13 100.1 °F 76.9 °F 29.89 in WSW 3.5 mph 8.1 mph 48 % 0.00 in
14:18 100.0 °F 76.8 °F 29.89 in NW 5.2 mph 9.0 mph 48 % 0.00 in
14:23 99.8 °F 77.2 °F 29.89 in NNW 5.3 mph 8.1 mph 49 % 0.00 in
14:28 99.8 °F 77.2 °F 29.89 in NNE 2.8 mph 3.5 mph 49 % 0.00 in
14:33 99.8 °F 77.8 °F 29.89 in West 2.1 mph 8.1 mph 50 % 0.00 in
14:49 99.9 °F 78.5 °F 29.89 in West 2.6 mph 8.1 mph 51 % 0.00 in
14:54 100.0 °F 78.0 °F 29.89 in NW 5.1 mph 8.1 mph 50 % 0.00 in
14:59 100.0 °F 78.0 °F 29.89 in WSW 3.1 mph 8.1 mph 50 % 0.00 in
15:04 100.1 °F 78.7 °F 29.89 in WNW 3.2 mph 8.0 mph 51 % 0.00 in
15:09 100.1 °F 76.9 °F 29.89 in WNW 4.8 mph 10.4 mph 48 % 0.00 in
15:14 100.0 °F 78.0 °F 29.89 in WSW 2.7 mph 5.0 mph 50 % 0.00 in
15:19 100.1 °F 78.1 °F 29.88 in NNW 1.8 mph 3.5 mph 50 % 0.00 in
15:24 100.1 °F 76.9 °F 29.88 in West 5.0 mph 6.9 mph 48 % 0.00 in
15:29 100.3 °F 77.7 °F 29.89 in WNW 2.7 mph 3.5 mph 49 % 0.00 in
15:34 100.4 °F 79.6 °F 29.89 in SSW 4.2 mph 8.0 mph 52 % 0.00 in
15:40 100.2 °F 77.0 °F 29.88 in WSW 4.4 mph 8.1 mph 48 % 0.00 in
15:45 100.2 °F 77.6 °F 29.88 in SW 4.9 mph 8.0 mph 49 % 0.00 in
15:50 100.1 °F 77.5 °F 29.88 in SSW 4.6 mph 8.1 mph 49 % 0.00 in
15:55 100.0 °F 77.4 °F 29.88 in SW 5.4 mph 9.2 mph 49 % 0.00 in
16:00 100.0 °F 76.8 °F 29.88 in WSW 4.6 mph 6.9 mph 48 % 0.00 in
16:05 99.9 °F 76.7 °F 29.88 in WNW 3.6 mph 5.8 mph 48 % 0.00 in
16:10 99.9 °F 77.9 °F 29.88 in SSW 0.7 mph 3.5 mph 50 % 0.00 in
16:15 99.9 °F 77.3 °F 29.88 in SW 2.2 mph 6.0 mph 49 % 0.00 in
16:20 100.1 °F 78.1 °F 29.88 in NNW 2.8 mph 3.5 mph 50 % 0.00 in
16:25 99.9 °F 77.3 °F 29.88 in WNW 0.8 mph 6.9 mph 49 % 0.00 in
16:30 99.8 °F 77.8 °F 29.89 in West 3.3 mph 5.8 mph 50 % 0.00 in
16:35 99.7 °F 78.3 °F 29.89 in West 3.4 mph 6.0 mph 51 % 0.00 in
16:41 99.7 °F 77.1 °F 29.88 in West 3.0 mph 7.0 mph 49 % 0.00 in
16:46 99.6 °F 77.0 °F 29.89 in West 5.0 mph 8.0 mph 49 % 0.00 in
16:51 99.4 °F 76.9 °F 29.89 in West 2.0 mph 7.0 mph 49 % 0.00 in
16:56 99.2 °F 76.7 °F 29.89 in West 3.0 mph 9.0 mph 49 % 0.00 in
17:01 98.9 °F 77.0 °F 29.89 in SW 2.9 mph 8.1 mph 50 % 0.00 in
17:06 98.7 °F 77.4 °F 29.89 in WSW 3.0 mph 9.0 mph 51 % 0.00 in
17:11 98.4 °F 77.2 °F 29.89 in WSW 5.0 mph 8.0 mph 51 % 0.00 in
17:16 98.3 °F 77.1 °F 29.89 in WSW 3.0 mph 6.0 mph 51 % 0.00 in
17:21 98.2 °F 78.1 °F 29.90 in SW 1.0 mph 8.0 mph 53 % 0.00 in
17:26 97.7 °F 78.2 °F 29.89 in Calm   8.0 mph 54 % 0.00 in
17:31 97.3 °F 78.4 °F 29.89 in WSW 1.0 mph 4.0 mph 55 % 0.00 in
17:36 96.9 °F 78.6 °F 29.89 in SW 2.0 mph 5.0 mph 56 % 0.00 in
17:41 96.3 °F 78.6 °F 29.89 in Calm   4.0 mph 57 % 0.00 in
17:46 96.0 °F 78.3 °F 29.90 in SW 2.0 mph 7.0 mph 57 % 0.00 in
17:50 95.6 °F 78.5 °F 29.90 in SW 0.7 mph 3.5 mph 58 % 0.00 in
17:56 95.4 °F 78.3 °F 29.90 in SW 2.0 mph 6.0 mph 58 % 0.00 in
18:01 95.2 °F 78.6 °F 29.90 in WSW 1.4 mph 1.4 mph 59 % 0.00 in
18:06 95.0 °F 78.4 °F 29.90 in SW 2.0 mph 5.0 mph 59 % 0.00 in
18:11 94.8 °F 78.2 °F 29.90 in Calm   7.0 mph 59 % 0.00 in
18:16 94.7 °F 78.1 °F 29.90 in SW 1.0 mph 2.0 mph 59 % 0.00 in
18:21 94.5 °F 78.0 °F 29.90 in SW 0.1 mph 1.2 mph 59 % 0.00 in
18:26 94.4 °F 78.4 °F 29.90 in Calm   3.0 mph 60 % 0.00 in
18:31 94.2 °F 78.7 °F 29.90 in Calm   2.0 mph 61 % 0.00 in
18:36 94.0 °F 78.5 °F 29.91 in SSE 0.8 mph 2.3 mph 61 % 0.00 in
18:41 93.9 °F 78.4 °F 29.91 in SSW 1.0 mph 3.0 mph 61 % 0.00 in
18:46 93.7 °F 78.2 °F 29.91 in Calm   5.0 mph 61 % 0.00 in
18:51 93.5 °F 78.0 °F 29.91 in SW 0.7 mph 3.5 mph 61 % 0.00 in
18:56 93.3 °F 78.3 °F 29.91 in SSW 1.0 mph 4.0 mph 62 % 0.00 in
19:01 93.1 °F 78.1 °F 29.91 in SSW 0.1 mph 1.2 mph 62 % 0.00 in
19:06 92.8 °F 77.9 °F 29.91 in SW 1.3 mph 2.3 mph 62 % 0.00 in
19:11 92.6 °F 78.2 °F 29.91 in Calm     63 % 0.00 in
19:16 92.2 °F 78.3 °F 29.91 in Calm   1.2 mph 64 % 0.00 in
19:21 92.0 °F 78.1 °F 29.92 in Calm     64 % 0.00 in
19:26 91.7 °F 77.8 °F 29.92 in Calm     64 % 0.00 in
19:31 91.4 °F 78.0 °F 29.92 in Calm     65 % 0.00 in
19:36 91.1 °F 78.2 °F 29.92 in Calm     66 % 0.00 in
19:41 90.6 °F 77.7 °F 29.93 in NNW 4.2 mph 9.2 mph 66 % 0.00 in
19:46 89.9 °F 76.6 °F 29.94 in West 3.3 mph 4.0 mph 65 % 0.00 in
19:51 89.1 °F 76.7 °F 29.93 in West 0.3 mph 3.5 mph 67 % 0.00 in
20:02 87.8 °F 77.2 °F 29.95 in NW 4.3 mph 4.3 mph 71 % 0.00 in
20:07 87.2 °F 77.5 °F 29.97 in WSW 5.2 mph 10.4 mph 73 % 0.00 in
20:12 86.0 °F 77.5 °F 29.97 in SSW 10.3 mph 15.0 mph 76 % 0.04 in
20:17 83.9 °F 76.3 °F 29.98 in WSW 10.0 mph 17.3 mph 78 % 0.09 in
20:22 82.4 °F 76.3 °F 29.98 in West 5.4 mph 12.7 mph 82 % 0.20 in
20:27 81.5 °F 76.2 °F 29.97 in West 2.6 mph 5.8 mph 84 % 0.24 in
20:32 80.9 °F 75.6 °F 29.96 in WSW 0.7 mph 3.5 mph 84 % 0.27 in
20:37 80.4 °F 75.5 °F 29.96 in WSW 0.7 mph 1.2 mph 85 % 0.27 in
20:42 80.0 °F 75.1 °F 29.96 in WNW 2.3 mph 4.0 mph 85 % 0.27 in
20:48 79.5 °F 74.6 °F 29.97 in SW 1.2 mph 4.6 mph 85 % 0.27 in
20:53 79.0 °F 74.5 °F 29.97 in SW 0.8 mph 3.5 mph 86 % 0.27 in
20:58 78.6 °F 74.1 °F 29.97 in SW 0.4 mph 1.2 mph 86 % 0.27 in
21:03 78.3 °F 74.1 °F 29.96 in SW 0.8 mph 3.5 mph 87 % 0.27 in
21:08 78.0 °F 74.2 °F 29.96 in SW 1.2 mph 2.3 mph 88 % 0.26 in
21:13 77.8 °F 74.6 °F 29.96 in SW 1.5 mph 2.3 mph 90 % 0.23 in
21:18 77.6 °F 74.8 °F 29.97 in SW 1.9 mph 3.5 mph 91 % 0.17 in
21:23 77.4 °F 74.6 °F 29.97 in SW 2.0 mph 3.5 mph 91 % 0.05 in
21:28 77.3 °F 74.5 °F 29.96 in SW 0.6 mph 3.5 mph 91 % 0.01 in
21:33 77.2 °F 74.7 °F 29.97 in SW 0.8 mph 2.3 mph 92 % 0.00 in
21:39 77.1 °F 74.6 °F 29.97 in SW 1.1 mph 2.3 mph 92 % 0.00 in
21:44 77.1 °F 74.6 °F 29.97 in SW 1.2 mph 2.3 mph 92 % 0.00 in
21:49 77.0 °F 74.8 °F 29.98 in SW 1.2 mph 2.3 mph 93 % 0.00 in
21:54 77.0 °F 74.8 °F 29.98 in SW 0.4 mph 2.0 mph 93 % 0.00 in
21:59 76.9 °F 74.7 °F 29.98 in SW 0.4 mph 2.3 mph 93 % 0.00 in
22:04 76.8 °F 74.6 °F 29.98 in Calm   1.2 mph 93 % 0.00 in
22:09 76.8 °F 74.6 °F 29.98 in SW 0.3 mph 1.2 mph 93 % 0.00 in
22:14 76.7 °F 74.5 °F 29.98 in SW 0.9 mph 2.3 mph 93 % 0.00 in
22:19 76.7 °F 74.5 °F 29.97 in SW 0.3 mph 1.2 mph 93 % 0.00 in
22:24 76.6 °F 74.7 °F 29.97 in SW 0.1 mph 1.2 mph 94 % 0.00 in
22:29 76.6 °F 74.7 °F 29.97 in Calm   1.2 mph 94 % 0.00 in
22:34 76.5 °F 74.6 °F 29.97 in SW 1.5 mph 3.5 mph 94 % 0.00 in
22:40 76.5 °F 74.6 °F 29.97 in SW 0.2 mph 1.2 mph 94 % 0.00 in
22:45 76.4 °F 74.5 °F 29.97 in SW 0.2 mph 2.3 mph 94 % 0.00 in
22:50 76.4 °F 74.5 °F 29.97 in SW 0.6 mph 1.2 mph 94 % 0.00 in
22:55 76.4 °F 74.5 °F 29.98 in SW 1.9 mph 3.5 mph 94 % 0.00 in
23:00 76.3 °F 74.4 °F 29.99 in SW 0.8 mph 2.0 mph 94 % 0.00 in
23:05 76.2 °F 74.3 °F 29.99 in SW 0.7 mph 2.3 mph 94 % 0.00 in
23:10 76.2 °F 74.3 °F 29.98 in Calm   1.2 mph 94 % 0.00 in
23:15 76.2 °F 74.3 °F 29.97 in Calm   1.2 mph 94 % 0.00 in
23:20 76.2 °F 74.7 °F 29.98 in SW 2.0 mph 3.5 mph 95 % 0.00 in
23:26 76.2 °F 74.7 °F 29.98 in SW 1.4 mph 2.3 mph 95 % 0.00 in
23:31 76.2 °F 74.7 °F 29.98 in SW 1.0 mph 3.0 mph 95 % 0.00 in
23:36 76.3 °F 74.8 °F 29.98 in Calm   3.0 mph 95 % 0.00 in
23:41 76.3 °F 74.8 °F 29.98 in SW 0.7 mph 2.3 mph 95 % 0.00 in
23:46 76.3 °F 74.8 °F 29.99 in SW 2.0 mph 3.0 mph 95 % 0.00 in
23:51 76.3 °F 74.8 °F 29.99 in SW 1.5 mph 3.5 mph 95 % 0.00 in
23:56 76.3 °F 74.8 °F 30.00 in SW 2.0 mph 3.5 mph 95 % 0.00 in
Crab Meadow Weather
Compliments of Weather Underground - 3 mb

Script developed by  Jim McMurry - jmcmurry@mwt.net Adapted for the template by  Wim van der Kuil - Leuven-Template.eu

Astronomy: Water covers 71% of Earth.